createdAt,value
2022-12-13T00:00:57.506Z,-1.72
2022-12-13T00:03:23.979Z,-1.74
2022-12-13T00:05:50.402Z,-1.78
2022-12-13T00:08:17.058Z,-1.78
2022-12-13T00:10:43.568Z,-1.80
2022-12-13T00:13:10.023Z,-1.82
2022-12-13T00:15:36.440Z,-1.82
2022-12-13T00:18:02.852Z,-1.83
2022-12-13T00:20:29.268Z,-1.84
2022-12-13T00:22:55.647Z,-1.84
2022-12-13T00:25:22.152Z,-1.84
2022-12-13T00:27:48.632Z,-1.86
2022-12-13T00:30:15.032Z,-1.86
2022-12-13T00:32:41.424Z,-1.87
2022-12-13T00:35:07.951Z,-1.88
2022-12-13T00:37:34.365Z,-1.89
2022-12-13T00:40:00.780Z,-1.92
2022-12-13T00:42:27.165Z,-1.93
2022-12-13T00:44:53.651Z,-1.94
2022-12-13T00:47:20.918Z,-1.95
2022-12-13T00:49:47.456Z,-1.97
2022-12-13T00:52:13.918Z,-1.99
2022-12-13T00:54:40.320Z,-2.00
2022-12-13T00:57:06.741Z,-2.02
2022-12-13T00:59:33.117Z,-2.05
2022-12-13T01:01:59.525Z,-2.06
2022-12-13T01:04:25.932Z,-2.07
2022-12-13T01:06:53.041Z,-2.10
2022-12-13T01:09:20.800Z,-2.11
2022-12-13T01:11:47.474Z,-2.13
2022-12-13T01:14:13.889Z,-2.15
2022-12-13T01:16:40.333Z,-2.16
2022-12-13T01:19:06.724Z,-2.17
2022-12-13T01:21:33.345Z,-2.18
2022-12-13T01:24:06.316Z,-2.19
2022-12-13T01:26:32.966Z,-2.18
2022-12-13T01:28:59.366Z,-2.21
2022-12-13T01:31:26.370Z,-2.20
2022-12-13T01:33:52.733Z,-2.23
2022-12-13T01:36:27.672Z,-2.23
2022-12-13T01:38:58.812Z,-2.24
2022-12-13T01:41:27.229Z,-2.27
2022-12-13T01:43:55.302Z,-2.29
2022-12-13T01:46:21.783Z,-2.32
2022-12-13T01:48:57.682Z,-2.32
2022-12-13T01:51:47.338Z,-2.35
2022-12-13T01:54:21.448Z,-2.36
2022-12-13T01:56:51.090Z,-2.38
2022-12-13T01:59:19.015Z,-2.38
2022-12-13T02:01:46.615Z,-2.39
2022-12-13T02:04:13.055Z,-2.40
2022-12-13T02:06:44.500Z,-2.40
2022-12-13T02:09:11.457Z,-2.41
2022-12-13T02:11:41.609Z,-2.41
2022-12-13T02:14:09.836Z,-2.43
2022-12-13T02:16:42.106Z,-2.43
2022-12-13T02:19:31.106Z,-2.42
2022-12-13T02:21:57.454Z,-2.43
2022-12-13T02:24:42.722Z,-2.44
2022-12-13T02:27:30.465Z,-2.43
2022-12-13T02:30:15.902Z,-2.44
2022-12-13T02:32:50.463Z,-2.45
2022-12-13T02:35:22.759Z,-2.46
2022-12-13T02:38:07.752Z,-2.46
2022-12-13T02:40:43.307Z,-2.46
2022-12-13T02:43:15.835Z,-2.47
2022-12-13T02:45:49.223Z,-2.48
2022-12-13T02:48:25.423Z,-2.49
2022-12-13T02:50:52.694Z,-2.51
2022-12-13T02:53:21.390Z,-2.52
2022-12-13T02:55:47.784Z,-2.54
2022-12-13T02:58:15.800Z,-2.55
2022-12-13T03:00:53.751Z,-2.56
2022-12-13T03:03:43.235Z,-2.58
2022-12-13T03:06:33.557Z,-2.59
2022-12-13T03:09:09.930Z,-2.60
2022-12-13T03:12:07.899Z,-2.61
2022-12-13T03:14:36.427Z,-2.64
2022-12-13T03:17:05.486Z,-2.64
2022-12-13T03:19:31.914Z,-2.65
2022-12-13T03:21:58.340Z,-2.65
2022-12-13T03:24:24.711Z,-2.65
2022-12-13T03:26:51.887Z,-2.65
2022-12-13T03:29:24.358Z,-2.67
2022-12-13T03:31:51.772Z,-2.68
2022-12-13T03:34:22.411Z,-2.68
2022-12-13T03:36:49.895Z,-2.69
2022-12-13T03:39:16.359Z,-2.70
2022-12-13T03:41:42.785Z,-2.70
2022-12-13T03:44:09.249Z,-2.71
2022-12-13T03:46:35.859Z,-2.71
2022-12-13T03:49:02.374Z,-2.71
2022-12-13T03:51:28.776Z,-2.70
2022-12-13T03:53:55.203Z,-2.72
2022-12-13T03:56:21.636Z,-2.71
2022-12-13T03:58:48.124Z,-2.72
2022-12-13T04:01:16.148Z,-2.71
2022-12-13T04:03:43.886Z,-2.70
2022-12-13T04:06:10.824Z,-2.71
2022-12-13T04:08:37.896Z,-2.72
2022-12-13T04:11:23.173Z,-2.71
2022-12-13T04:13:49.590Z,-2.73
2022-12-13T04:16:16.075Z,-2.74
2022-12-13T04:18:42.632Z,-2.76
2022-12-13T04:21:09.057Z,-2.78
2022-12-13T04:23:35.464Z,-2.79
2022-12-13T04:26:01.885Z,-2.81
2022-12-13T04:28:28.297Z,-2.82
2022-12-13T04:30:54.673Z,-2.82
2022-12-13T04:33:22.203Z,-2.84
2022-12-13T04:35:49.260Z,-2.85
2022-12-13T04:38:15.719Z,-2.84
2022-12-13T04:40:42.139Z,-2.85
2022-12-13T04:43:08.592Z,-2.85
2022-12-13T04:45:35.068Z,-2.86
2022-12-13T04:48:01.530Z,-2.86
2022-12-13T04:50:27.965Z,-2.89
2022-12-13T04:52:54.384Z,-2.88
2022-12-13T04:55:20.748Z,-2.88
2022-12-13T04:57:47.130Z,-2.87
2022-12-13T05:00:14.260Z,-2.86
2022-12-13T05:02:45.780Z,-2.84
2022-12-13T05:05:12.375Z,-2.82
2022-12-13T05:07:42.150Z,-2.78
2022-12-13T05:10:09.584Z,-2.76
2022-12-13T05:12:35.984Z,-2.69
2022-12-13T05:15:02.350Z,-2.48
2022-12-13T05:17:28.770Z,-2.06
2022-12-13T05:19:55.141Z,-1.49
2022-12-13T05:22:21.509Z,-0.86
2022-12-13T05:24:48.194Z,-0.17
2022-12-13T05:27:25.069Z,0.51
2022-12-13T05:30:03.961Z,1.22
2022-12-13T05:32:43.069Z,1.80
2022-12-13T05:35:10.811Z,2.24
2022-12-13T05:37:37.214Z,2.47
2022-12-13T05:40:03.738Z,2.60
2022-12-13T05:42:30.319Z,2.61
2022-12-13T05:44:56.710Z,2.55
2022-12-13T05:47:23.078Z,2.43
2022-12-13T05:49:49.471Z,2.30
2022-12-13T05:52:20.035Z,2.13
2022-12-13T05:54:46.496Z,1.92
2022-12-13T05:57:12.942Z,1.73
2022-12-13T05:59:39.345Z,1.56
2022-12-13T06:02:05.857Z,1.48
2022-12-13T06:04:32.371Z,1.50
2022-12-13T06:06:58.751Z,1.60
2022-12-13T06:09:25.142Z,1.76
2022-12-13T06:11:51.586Z,1.92
2022-12-13T06:14:22.343Z,2.02
2022-12-13T06:16:49.926Z,2.07
2022-12-13T06:19:16.343Z,2.02
2022-12-13T06:21:46.218Z,1.95
2022-12-13T06:24:20.916Z,1.83
2022-12-13T06:26:48.030Z,1.70
2022-12-13T06:29:24.377Z,1.54
2022-12-13T06:32:03.540Z,1.36
2022-12-13T06:34:34.322Z,1.18
2022-12-13T06:37:01.177Z,0.99
2022-12-13T06:39:32.419Z,0.83
2022-12-13T06:41:58.981Z,0.65
2022-12-13T06:44:25.404Z,0.50
2022-12-13T06:46:51.812Z,0.35
2022-12-13T06:49:37.366Z,0.20
2022-12-13T06:52:03.871Z,0.04
2022-12-13T06:54:30.235Z,-0.08
2022-12-13T06:56:56.628Z,-0.20
2022-12-13T06:59:23.164Z,-0.31
2022-12-13T07:01:50.632Z,-0.43
2022-12-13T07:04:28.884Z,-0.53
2022-12-13T07:07:01.935Z,-0.64
2022-12-13T07:09:30.328Z,-0.73
2022-12-13T07:11:56.800Z,-0.81
2022-12-13T07:14:23.219Z,-0.86
2022-12-13T07:16:49.609Z,-0.92
2022-12-13T07:19:23.419Z,-0.95
2022-12-13T07:21:50.893Z,-1.00
2022-12-13T07:24:17.292Z,-1.03
2022-12-13T07:26:43.654Z,-1.05
2022-12-13T07:29:10.059Z,-1.08
2022-12-13T07:31:37.575Z,-1.13
2022-12-13T07:34:04.436Z,-1.15
2022-12-13T07:36:30.800Z,-1.18
2022-12-13T07:38:57.585Z,-1.19
2022-12-13T07:41:24.814Z,-1.19
2022-12-13T07:43:55.518Z,-1.20
2022-12-13T07:46:31.794Z,-1.19
2022-12-13T07:49:01.482Z,-1.21
2022-12-13T07:51:28.322Z,-1.18
2022-12-13T07:53:54.673Z,-1.17
2022-12-13T07:56:21.068Z,-1.15
2022-12-13T07:58:47.523Z,-1.14
2022-12-13T08:01:13.966Z,-1.09
2022-12-13T08:03:40.461Z,-1.06
2022-12-13T08:06:09.140Z,-1.02
2022-12-13T08:08:35.779Z,-0.97
2022-12-13T08:11:03.737Z,-0.92
2022-12-13T08:13:30.148Z,-0.86
2022-12-13T08:16:04.051Z,-0.79
2022-12-13T08:18:30.812Z,-0.71
2022-12-13T08:21:01.127Z,-0.63
2022-12-13T08:23:28.062Z,-0.55
2022-12-13T08:25:54.614Z,-0.47
2022-12-13T08:28:21.059Z,-0.38
2022-12-13T08:30:47.678Z,-0.31
2022-12-13T08:33:14.046Z,-0.21
2022-12-13T08:35:40.458Z,-0.14
2022-12-13T08:38:07.758Z,-0.07
2022-12-13T08:40:35.005Z,-0.03
2022-12-13T08:43:02.032Z,0.03
2022-12-13T08:45:28.508Z,0.08
2022-12-13T08:47:57.466Z,0.15
2022-12-13T08:50:23.944Z,0.23
2022-12-13T08:52:51.282Z,0.31
2022-12-13T08:55:21.081Z,0.41
2022-12-13T08:57:50.210Z,0.51
2022-12-13T09:00:17.834Z,0.59
2022-12-13T09:02:44.673Z,0.65
2022-12-13T09:05:12.090Z,0.70
2022-12-13T09:07:42.058Z,0.75
2022-12-13T09:10:25.404Z,0.79
2022-12-13T09:13:01.786Z,0.82
2022-12-13T09:15:33.649Z,0.84
2022-12-13T09:18:05.179Z,0.90
2022-12-13T09:20:32.400Z,0.95
2022-12-13T09:23:07.821Z,1.02
2022-12-13T09:25:40.849Z,1.08
2022-12-13T09:28:08.309Z,1.17
2022-12-13T09:30:35.671Z,1.23
2022-12-13T09:33:18.150Z,1.32
2022-12-13T09:35:48.796Z,1.40
2022-12-13T09:38:15.812Z,1.49
2022-12-13T09:40:44.116Z,1.57
2022-12-13T09:43:22.918Z,1.65
2022-12-13T09:45:50.566Z,1.73
2022-12-13T09:48:22.625Z,1.82
2022-12-13T09:50:58.478Z,1.93
2022-12-13T09:53:36.871Z,2.02
2022-12-13T09:56:10.375Z,2.08
2022-12-13T09:58:37.531Z,2.16
2022-12-13T10:01:05.343Z,2.21
2022-12-13T10:03:31.804Z,2.24
2022-12-13T10:05:59.096Z,2.27
2022-12-13T10:08:45.811Z,2.31
2022-12-13T10:11:13.799Z,2.34
2022-12-13T10:13:42.104Z,2.36
2022-12-13T10:16:23.289Z,2.39
2022-12-13T10:18:50.612Z,2.42
2022-12-13T10:21:22.221Z,2.45
2022-12-13T10:26:39.579Z,2.58
2022-12-13T10:29:08.331Z,2.64
2022-12-13T10:31:45.738Z,2.72
2022-12-13T10:34:20.212Z,2.79
2022-12-13T10:36:46.708Z,2.84
2022-12-13T10:39:35.692Z,2.92
2022-12-13T10:42:03.541Z,2.98
2022-12-13T10:44:29.961Z,3.04
2022-12-13T10:47:02.474Z,3.10
2022-12-13T10:49:39.101Z,3.13
2022-12-13T10:52:06.202Z,3.19
2022-12-13T10:54:38.347Z,3.19
2022-12-13T10:57:05.727Z,3.25
2022-12-13T10:59:39.092Z,3.29
2022-12-13T11:02:24.645Z,3.33
2022-12-13T11:04:51.914Z,3.37
2022-12-13T11:07:25.617Z,3.43
2022-12-13T11:09:52.694Z,3.51
2022-12-13T11:12:24.505Z,3.56
2022-12-13T11:14:58.286Z,3.66
2022-12-13T11:17:26.540Z,3.74
2022-12-13T11:19:54.730Z,3.86
2022-12-13T11:22:22.371Z,3.94
2022-12-13T11:24:55.710Z,4.04
2022-12-13T11:27:42.381Z,4.16
2022-12-13T11:30:12.880Z,4.26
2022-12-13T11:32:59.234Z,4.35
2022-12-13T11:35:28.857Z,4.43
2022-12-13T11:38:12.899Z,4.48
2022-12-13T11:40:44.893Z,4.55
2022-12-13T11:43:21.222Z,4.62
2022-12-13T11:45:54.264Z,4.68
2022-12-13T11:48:24.989Z,4.75
2022-12-13T11:50:53.670Z,4.82
2022-12-13T11:53:23.650Z,4.90
2022-12-13T11:56:05.930Z,4.96
2022-12-13T12:01:32.434Z,5.15
2022-12-13T12:04:19.626Z,5.23
2022-12-13T12:06:50.895Z,5.33
2022-12-13T12:09:19.138Z,5.42
2022-12-13T12:11:45.592Z,5.52
2022-12-13T12:14:30.594Z,5.62
2022-12-13T12:17:00.276Z,5.72
2022-12-13T12:19:29.610Z,5.83
2022-12-13T12:22:18.902Z,5.90
2022-12-13T12:25:04.214Z,5.96
2022-12-13T12:27:30.622Z,6.02
2022-12-13T12:30:09.825Z,6.05
2022-12-13T12:32:41.890Z,6.10
2022-12-13T12:35:26.890Z,6.13
2022-12-13T12:38:11.539Z,6.18
2022-12-13T12:43:45.238Z,6.35
2022-12-13T12:46:11.675Z,6.43
2022-12-13T12:48:56.941Z,6.50
2022-12-13T12:51:47.427Z,6.61
2022-12-13T12:54:19.939Z,6.72
2022-12-13T12:56:46.299Z,6.82
2022-12-13T12:59:19.871Z,6.92
2022-12-13T13:01:49.332Z,7.00
2022-12-13T13:04:22.128Z,7.08
2022-12-13T13:07:01.544Z,7.13
2022-12-13T13:09:28.959Z,7.18
2022-12-13T13:11:57.251Z,7.21
2022-12-13T13:14:24.402Z,7.23
2022-12-13T13:16:50.863Z,7.25
2022-12-13T13:19:25.513Z,7.23
2022-12-13T13:21:54.007Z,7.24
2022-12-13T13:24:23.511Z,7.26
2022-12-13T13:26:51.255Z,7.25
2022-12-13T13:29:27.156Z,7.25
2022-12-13T13:32:02.272Z,7.25
2022-12-13T13:34:38.136Z,7.25
2022-12-13T13:37:05.604Z,7.25
2022-12-13T13:39:32.012Z,7.26
2022-12-13T13:42:13.503Z,7.25
2022-12-13T13:44:46.116Z,7.26
2022-12-13T13:47:16.809Z,7.29
2022-12-13T13:49:54.759Z,7.29
2022-12-13T13:52:26.276Z,7.28
2022-12-13T13:55:16.460Z,7.31
2022-12-13T13:58:11.080Z,7.33
2022-12-13T14:00:56.977Z,7.34
2022-12-13T14:03:42.691Z,7.36
2022-12-13T14:06:28.064Z,7.36
2022-12-13T14:09:20.958Z,7.37
2022-12-13T14:12:06.114Z,7.36
2022-12-13T14:14:51.117Z,7.37
2022-12-13T14:17:36.869Z,7.37
2022-12-13T14:20:22.075Z,7.38
2022-12-13T14:22:53.325Z,7.37
2022-12-13T14:25:40.307Z,7.34
2022-12-13T14:28:30.719Z,7.29
2022-12-13T14:30:57.880Z,7.20
2022-12-13T14:33:25.508Z,7.10
2022-12-13T14:35:59.837Z,7.00
2022-12-13T14:38:28.242Z,6.88
2022-12-13T14:40:56.562Z,6.76
2022-12-13T14:43:24.670Z,6.64
2022-12-13T14:45:57.442Z,6.49
2022-12-13T14:48:28.492Z,6.34
2022-12-13T14:50:56.030Z,6.18
2022-12-13T14:53:28.616Z,6.01
2022-12-13T14:56:05.873Z,5.86
2022-12-13T14:58:32.332Z,5.69
2022-12-13T15:00:58.951Z,5.56
2022-12-13T15:03:27.457Z,5.43
2022-12-13T15:05:58.919Z,5.30
2022-12-13T15:08:25.670Z,5.16
2022-12-13T15:10:56.934Z,5.03
2022-12-13T15:13:29.136Z,4.92
2022-12-13T15:16:01.180Z,4.77
2022-12-13T15:18:28.359Z,4.70
2022-12-13T15:20:55.759Z,4.60
2022-12-13T15:23:31.430Z,4.51
2022-12-13T15:25:57.973Z,4.42
2022-12-13T15:28:28.532Z,4.34
2022-12-13T15:30:56.591Z,4.26
2022-12-13T15:33:30.446Z,4.21
2022-12-13T15:36:10.891Z,4.14
2022-12-13T15:38:39.004Z,4.07
2022-12-13T15:41:05.780Z,4.00
2022-12-13T15:43:52.481Z,3.92
2022-12-13T15:46:26.620Z,3.86
2022-12-13T15:48:54.732Z,3.80
2022-12-13T15:51:29.410Z,3.73
2022-12-13T15:54:18.377Z,3.68
2022-12-13T15:57:15.791Z,3.62
2022-12-13T15:59:43.541Z,3.56
2022-12-13T16:02:30.249Z,3.50
2022-12-13T16:05:05.584Z,3.45
2022-12-13T16:07:38.080Z,3.41
2022-12-13T16:10:05.320Z,3.35
2022-12-13T16:12:39.314Z,3.32
2022-12-13T16:15:20.237Z,3.26
2022-12-13T16:17:56.748Z,3.20
2022-12-13T16:20:26.305Z,3.14
2022-12-13T16:22:53.774Z,3.08
2022-12-13T16:25:26.542Z,3.02
2022-12-13T16:27:52.969Z,2.96
2022-12-13T16:30:24.070Z,2.92
2022-12-13T16:35:37.096Z,2.81
2022-12-13T16:38:09.361Z,2.75
2022-12-13T16:40:36.045Z,2.70
2022-12-13T16:43:04.139Z,2.64
2022-12-13T16:45:47.079Z,2.60
2022-12-13T16:48:13.932Z,2.55
2022-12-13T16:50:45.266Z,2.52
2022-12-13T16:53:17.069Z,2.47
2022-12-13T16:55:44.037Z,2.42
2022-12-13T16:58:26.017Z,2.36
2022-12-13T17:00:52.667Z,2.32
2022-12-13T17:03:26.155Z,2.26
2022-12-13T17:05:58.894Z,2.20
2022-12-13T17:08:25.660Z,2.15
2022-12-13T17:10:57.936Z,2.10
2022-12-13T17:13:25.108Z,2.07
2022-12-13T17:15:59.479Z,2.01
2022-12-13T17:18:26.382Z,1.94
2022-12-13T17:20:58.261Z,1.88
2022-12-13T17:23:25.849Z,1.82
2022-12-13T17:25:58.434Z,1.76
2022-12-13T17:28:25.349Z,1.71
2022-12-13T17:30:54.971Z,1.66
2022-12-13T17:33:22.065Z,1.60
2022-12-13T17:35:48.772Z,1.56
2022-12-13T17:38:15.168Z,1.52
2022-12-13T17:40:41.766Z,1.46
2022-12-13T17:43:19.529Z,1.41
2022-12-13T17:46:01.387Z,1.35
2022-12-13T17:48:31.613Z,1.30
2022-12-13T17:51:02.083Z,1.23
2022-12-13T17:53:29.099Z,1.20
2022-12-13T17:55:59.716Z,1.13
2022-12-13T17:58:27.220Z,1.08
2022-12-13T18:00:54.267Z,1.04
2022-12-13T18:03:20.739Z,1.00
2022-12-13T23:56:41.332Z,-0.94
2022-12-13T23:59:07.748Z,-0.94
